Time;durP1;ratioP1;P1;durP2;ratioP2;P2;SDS_P1;SDS_P2;PMS_P1;PMS_P2;Temp;Humidity;BMP_temperature;BMP_pressure;BME280_temperature;BME280_humidity;BME280_pressure;Samples;Min_cycle;Max_cycle;Signal;HPM_P1;HPM_P2
2021/11/11 00:01:08;;;;;;;61.78;23.05;;;;;;;0.62;98.89;99377.06;5004043;28;20018;-89
2021/11/11 00:03:34;;;;;;;56.20;21.73;;;;;;;0.58;98.39;99382.09;5004083;28;20022;-89
2021/11/11 00:06:00;;;;;;;54.20;20.42;;;;;;;0.62;98.08;99377.06;5003933;28;20101;-89
2021/11/11 00:08:26;;;;;;;50.15;22.13;;;;;;;0.61;98.47;99377.00;5003988;28;20352;-89
2021/11/11 00:10:51;;;;;;;49.22;21.15;;;;;;;0.66;98.27;99381.50;5004033;28;20041;-89
2021/11/11 00:13:19;;;;;;;45.30;19.75;;;;;;;0.58;98.48;99385.56;5004127;28;20018;-89
2021/11/11 00:15:48;;;;;;;65.28;24.23;;;;;;;0.56;98.42;99392.41;5004087;28;20026;-89
2021/11/11 00:18:14;;;;;;;50.42;21.10;;;;;;;0.59;98.55;99396.78;5003674;28;20053;-89
2021/11/11 00:20:39;;;;;;;52.95;21.67;;;;;;;0.55;98.65;99394.94;5004742;28;20018;-89
2021/11/11 00:23:05;;;;;;;56.47;21.55;;;;;;;0.48;98.40;99385.22;5004362;28;20065;-89
2021/11/11 00:25:30;;;;;;;45.50;21.27;;;;;;;0.45;99.26;99379.94;5003572;28;20089;-89
2021/11/11 00:27:58;;;;;;;75.90;23.70;;;;;;;0.49;99.26;99395.63;5003682;28;20027;-89
2021/11/11 00:30:23;;;;;;;62.88;22.45;;;;;;;0.36;98.83;99387.41;5003633;28;20029;-89
2021/11/11 00:32:51;;;;;;;53.92;22.85;;;;;;;0.44;98.96;99396.34;5003336;28;20026;-89
2021/11/11 00:35:24;;;;;;;64.10;23.42;;;;;;;0.32;99.21;99391.63;5003785;28;20014;-89
2021/11/11 00:37:52;;;;;;;47.70;21.85;;;;;;;0.31;99.22;99389.00;5002815;28;20294;-89
2021/11/11 00:40:17;;;;;;;51.00;22.20;;;;;;;0.46;98.92;99394.66;5003627;28;20018;-89
2021/11/11 00:42:45;;;;;;;54.08;21.30;;;;;;;0.51;98.78;99387.91;5003513;28;20029;-89
2021/11/11 00:45:11;;;;;;;43.55;20.38;;;;;;;0.50;98.99;99381.84;5005069;28;20014;-89
2021/11/11 00:47:36;;;;;;;43.42;20.13;;;;;;;0.57;98.64;99372.56;5004612;28;20044;-89
2021/11/11 00:50:04;;;;;;;51.92;22.55;;;;;;;0.54;98.83;99377.66;5004032;28;20097;-89
2021/11/11 00:52:31;;;;;;;48.92;19.48;;;;;;;0.46;98.02;99379.13;5004312;28;20245;-89
2021/11/11 00:54:57;;;;;;;49.53;22.63;;;;;;;0.27;97.77;99376.75;5004229;28;20018;-89
2021/11/11 00:57:22;;;;;;;51.25;20.42;;;;;;;0.25;98.58;99378.44;5003853;28;20033;-89
2021/11/11 00:59:48;;;;;;;49.90;21.13;;;;;;;0.32;98.67;99380.38;5004001;28;20318;-89
2021/11/11 01:02:13;;;;;;;40.97;19.08;;;;;;;0.34;98.88;99365.81;5003693;28;20029;-89
2021/11/11 01:04:39;;;;;;;41.72;19.13;;;;;;;0.40;98.39;99369.44;5003824;28;20024;-89
2021/11/11 01:07:07;;;;;;;44.58;18.10;;;;;;;0.39;98.13;99359.03;5003812;28;20045;-89
2021/11/11 01:09:33;;;;;;;47.38;20.23;;;;;;;0.31;97.97;99357.94;5003681;28;20018;-89
2021/11/11 01:11:59;;;;;;;54.30;21.10;;;;;;;0.30;98.32;99343.19;5003925;28;20045;-89
2021/11/11 01:14:25;;;;;;;43.53;19.83;;;;;;;0.32;98.22;99349.31;5003678;28;20026;-89
2021/11/11 01:16:52;;;;;;;48.42;21.25;;;;;;;0.27;98.30;99350.88;5003330;28;20014;-89
2021/11/11 01:19:18;;;;;;;51.42;20.60;;;;;;;0.30;98.59;99353.56;5003883;28;20020;-89
2021/11/11 01:21:44;;;;;;;40.80;18.42;;;;;;;0.33;98.00;99345.91;5003474;28;20014;-89
2021/11/11 01:24:09;;;;;;;40.05;19.63;;;;;;;0.33;98.11;99341.59;5003759;28;20045;-90
2021/11/11 01:26:35;;;;;;;44.25;20.35;;;;;;;0.34;97.57;99342.50;5003483;28;20183;-89
2021/11/11 01:29:00;;;;;;;46.45;19.95;;;;;;;0.35;97.69;99344.25;5003592;28;20049;-89
2021/11/11 01:31:26;;;;;;;51.28;20.67;;;;;;;0.24;97.59;99350.78;5003867;28;20318;-89
2021/11/11 01:33:51;;;;;;;44.38;20.23;;;;;;;0.29;97.90;99344.03;5003574;28;20053;-89
2021/11/11 01:36:17;;;;;;;43.22;19.30;;;;;;;0.37;98.10;99352.91;5003503;28;20021;-89
2021/11/11 01:38:42;;;;;;;44.95;19.48;;;;;;;0.38;97.76;99360.75;5003604;28;20101;-89
2021/11/11 01:41:08;;;;;;;43.78;19.48;;;;;;;0.37;97.92;99365.88;5003368;28;20048;-89
2021/11/11 01:43:34;;;;;;;40.40;18.50;;;;;;;0.38;97.26;99370.22;5002901;28;20030;-89
2021/11/11 01:45:59;;;;;;;38.40;18.55;;;;;;;0.32;97.51;99376.09;5002147;28;20025;-89
2021/11/11 01:48:26;;;;;;;40.80;19.23;;;;;;;0.09;97.46;99365.81;5002918;28;20025;-89
2021/11/11 01:50:53;;;;;;;38.65;19.40;;;;;;;0.10;97.93;99358.13;5003582;28;20065;-89
2021/11/11 01:53:20;;;;;;;38.17;17.88;;;;;;;0.16;97.39;99347.06;4993984;28;20071;-89
2021/11/11 01:55:48;;;;;;;43.05;20.00;;;;;;;0.14;97.32;99352.19;5003667;28;20018;-89
2021/11/11 01:58:15;;;;;;;48.88;19.95;;;;;;;0.14;97.66;99361.66;5003588;28;20090;-89
2021/11/11 02:00:48;;;;;;;34.92;17.27;;;;;;;0.06;97.25;99350.19;5003224;28;20022;-89
2021/11/11 02:03:14;;;;;;;38.28;19.65;;;;;;;0.12;97.29;99345.22;5003042;28;20383;-89
2021/11/11 02:05:41;;;;;;;51.17;21.42;;;;;;;0.07;97.38;99352.84;5003171;28;20022;-89
2021/11/11 02:08:07;;;;;;;54.00;23.35;;;;;;;0.09;97.61;99352.88;5003139;28;20167;-89
2021/11/11 02:10:34;;;;;;;54.60;23.75;;;;;;;0.08;97.83;99349.41;5004457;28;20022;-89
2021/11/11 02:13:03;;;;;;;54.15;23.23;;;;;;;-0.05;97.90;99348.13;5003263;28;20030;-89
2021/11/11 02:15:29;;;;;;;56.10;22.52;;;;;;;-0.09;98.07;99345.41;4997029;28;20285;-89
2021/11/11 02:17:55;;;;;;;74.20;25.00;;;;;;;-0.15;98.72;99340.88;5002894;28;20058;-89
2021/11/11 02:20:26;;;;;;;98.07;24.38;;;;;;;-0.33;99.45;99340.25;4995723;28;20085;-89
2021/11/11 02:22:53;;;;;;;76.68;26.67;;;;;;;-0.14;100.00;99352.09;5002854;28;20097;-89
2021/11/11 02:25:22;;;;;;;139.32;28.17;;;;;;;-0.22;100.00;99359.59;5003184;28;20278;-89
2021/11/11 02:27:50;;;;;;;52.75;24.25;;;;;;;-0.03;100.00;99356.81;5003090;28;20037;-89
2021/11/11 02:30:19;;;;;;;60.20;24.33;;;;;;;-0.07;99.95;99336.84;5002998;28;20326;-89
2021/11/11 02:32:46;;;;;;;51.85;23.23;;;;;;;0.13;99.55;99352.16;5002948;28;20014;-89
2021/11/11 02:35:14;;;;;;;56.10;23.40;;;;;;;0.17;99.24;99351.41;5003274;28;20097;-89
2021/11/11 02:37:40;;;;;;;62.03;23.05;;;;;;;0.13;99.20;99346.97;5004074;28;20019;-89
2021/11/11 02:40:20;;;;;;;55.70;23.20;;;;;;;0.03;99.26;99351.84;5002680;28;20041;-89
2021/11/11 02:42:47;;;;;;;46.15;20.55;;;;;;;0.06;99.22;99361.41;4996215;28;20029;-89
2021/11/11 02:45:16;;;;;;;64.28;23.50;;;;;;;-0.07;99.18;99344.59;5003110;28;20022;-89
2021/11/11 02:47:42;;;;;;;44.25;21.73;;;;;;;0.08;99.49;99348.50;5002821;28;20022;-89
2021/11/11 02:50:09;;;;;;;44.70;21.70;;;;;;;0.12;99.08;99334.88;5002886;28;20026;-89
2021/11/11 02:52:35;;;;;;;52.58;22.67;;;;;;;0.24;98.61;99345.59;5002735;28;20028;-89
2021/11/11 02:55:00;;;;;;;63.83;22.05;;;;;;;0.00;98.64;99336.22;5004533;28;20022;-89
2021/11/11 02:57:29;;;;;;;47.50;20.20;;;;;;;-0.02;98.91;99337.88;5006178;28;20026;-89
2021/11/11 02:59:57;;;;;;;42.90;20.25;;;;;;;0.16;98.32;99341.91;5006526;28;20029;-89
2021/11/11 03:02:42;;;;;;;46.65;20.80;;;;;;;0.20;98.04;99339.47;5005814;28;20244;-89
2021/11/11 03:05:11;;;;;;;47.13;20.33;;;;;;;0.12;98.32;99324.53;5006233;28;20145;-89
2021/11/11 03:07:37;;;;;;;48.97;20.20;;;;;;;0.18;98.42;99324.72;5005871;28;20042;-89
2021/11/11 03:10:06;;;;;;;54.08;21.63;;;;;;;0.17;98.30;99333.28;5006573;28;20021;-89
2021/11/11 03:12:32;;;;;;;49.30;22.10;;;;;;;0.24;98.48;99330.06;5005619;28;20029;-89
2021/11/11 03:14:57;;;;;;;43.53;21.63;;;;;;;0.24;98.55;99335.25;5006073;28;20022;-89
2021/11/11 03:17:24;;;;;;;49.38;22.02;;;;;;;0.09;99.22;99327.88;5005699;28;20226;-89
2021/11/11 03:19:50;;;;;;;63.63;23.33;;;;;;;0.09;98.94;99335.63;5005621;28;20022;-89
2021/11/11 03:22:18;;;;;;;45.15;21.65;;;;;;;0.17;99.35;99343.66;5006070;28;20022;-89
2021/11/11 03:24:44;;;;;;;55.70;23.00;;;;;;;0.29;99.08;99351.81;5005752;28;20022;-89
2021/11/11 03:27:10;;;;;;;48.35;21.98;;;;;;;0.28;98.98;99339.72;5005593;28;20018;-89
2021/11/11 03:29:36;;;;;;;52.45;23.92;;;;;;;0.35;98.63;99354.59;5005702;28;20154;-89
2021/11/11 03:32:02;;;;;;;61.53;24.60;;;;;;;0.32;98.42;99351.91;5005715;28;20018;-89
2021/11/11 03:34:28;;;;;;;62.05;23.10;;;;;;;0.12;98.79;99345.22;5005494;28;20026;-88
2021/11/11 03:36:55;;;;;;;46.08;21.05;;;;;;;0.15;98.76;99346.19;4999822;28;20019;-88
2021/11/11 03:39:23;;;;;;;54.20;21.85;;;;;;;0.15;99.19;99345.31;5001275;28;21447;-88
2021/11/11 03:41:49;;;;;;;53.83;22.25;;;;;;;0.22;99.17;99342.94;5005330;28;20021;-88
2021/11/11 03:44:16;;;;;;;49.92;22.35;;;;;;;0.29;99.36;99344.03;5005299;28;20029;-88
2021/11/11 03:46:42;;;;;;;55.95;22.00;;;;;;;0.15;99.65;99334.97;5005202;28;20025;-88
2021/11/11 03:49:08;;;;;;;47.15;20.20;;;;;;;0.13;99.70;99331.44;5005329;28;20383;-88
2021/11/11 03:51:34;;;;;;;50.70;22.65;;;;;;;0.07;100.00;99318.31;5005037;28;20101;-88
2021/11/11 03:53:59;;;;;;;54.83;22.08;;;;;;;0.22;99.88;99331.75;5005160;28;20194;-88
2021/11/11 03:56:25;;;;;;;43.20;19.70;;;;;;;0.27;99.23;99330.16;5005156;28;20018;-88
2021/11/11 03:58:50;;;;;;;43.72;20.42;;;;;;;0.28;98.89;99331.94;5005293;28;20313;-88
2021/11/11 04:01:16;;;;;;;45.38;21.38;;;;;;;0.33;98.96;99331.25;5004953;28;20309;-88
2021/11/11 04:03:42;;;;;;;43.95;22.05;;;;;;;0.30;98.74;99333.75;5004724;28;20086;-88
2021/11/11 04:06:08;;;;;;;47.97;20.48;;;;;;;0.29;98.24;99328.50;5004690;28;20237;-88
2021/11/11 04:08:34;;;;;;;44.42;20.83;;;;;;;0.13;98.96;99315.91;5005064;28;20337;-88
2021/11/11 04:11:01;;;;;;;43.67;19.83;;;;;;;0.23;98.65;99333.50;4997589;28;20310;-88
2021/11/11 04:13:28;;;;;;;45.50;19.77;;;;;;;0.22;98.40;99334.34;5005679;28;20022;-88
2021/11/11 04:15:54;;;;;;;43.13;19.35;;;;;;;0.20;98.34;99348.91;5004641;28;20041;-88
2021/11/11 04:18:20;;;;;;;48.25;21.00;;;;;;;0.17;98.32;99335.88;5004877;28;20034;-88
2021/11/11 04:20:45;;;;;;;41.60;18.88;;;;;;;0.22;98.33;99345.53;5004737;28;20014;-88
2021/11/11 04:23:11;;;;;;;44.92;19.92;;;;;;;0.17;98.45;99338.47;5004558;28;20026;-88
2021/11/11 04:28:08;;;;;;;43.80;19.70;;;;;;;0.15;98.42;99345.31;5005874;28;20385;-88
2021/11/11 04:30:34;;;;;;;65.95;21.88;;;;;;;-0.08;99.09;99340.28;5004525;28;20049;-88
2021/11/11 04:33:01;;;;;;;43.92;21.27;;;;;;;0.07;99.32;99347.66;5004575;28;20018;-88
2021/11/11 04:35:28;;;;;;;39.72;19.75;;;;;;;0.08;98.94;99353.69;5004352;28;20325;-88
2021/11/11 05:04:29;;;;;;;48.72;20.60;;;;;;;0.03;98.15;99375.13;5005336;28;20333;-88
2021/11/11 05:06:54;;;;;;;39.10;18.15;;;;;;;0.19;98.28;99375.66;5003827;28;20177;-88
2021/11/11 05:09:20;;;;;;;51.72;22.15;;;;;;;0.15;98.53;99376.38;5004468;28;20317;-88
2021/11/11 05:11:46;;;;;;;38.85;19.52;;;;;;;0.20;98.48;99372.22;5004014;28;20022;-89
2021/11/11 05:14:11;;;;;;;51.75;20.15;;;;;;;0.19;98.67;99373.91;5003728;28;20337;-88
2021/11/11 05:16:37;;;;;;;42.05;18.83;;;;;;;0.30;98.12;99376.84;5002939;28;20018;-88
2021/11/11 05:19:02;;;;;;;36.15;19.25;;;;;;;0.32;97.86;99375.22;5003753;28;20056;-87
2021/11/11 05:21:28;;;;;;;48.40;19.60;;;;;;;0.36;98.08;99377.06;5004059;28;20026;-87
2021/11/11 05:23:54;;;;;;;55.13;17.80;;;;;;;0.24;98.70;99376.66;5004095;28;20033;-87
2021/11/11 05:26:20;;;;;;;50.08;19.02;;;;;;;0.06;99.00;99365.72;5003299;28;20018;-87
2021/11/11 05:28:46;;;;;;;44.45;19.52;;;;;;;0.11;99.65;99379.66;5003199;28;20014;-87
2021/11/11 05:31:11;;;;;;;47.70;20.48;;;;;;;0.19;99.43;99383.41;5002672;28;20037;-87
2021/11/11 05:33:36;;;;;;;43.00;20.15;;;;;;;0.26;99.60;99377.59;5003460;28;20018;-88
2021/11/11 05:36:02;;;;;;;47.13;18.50;;;;;;;0.27;99.90;99375.06;5003346;28;20042;-87
2021/11/11 05:38:28;;;;;;;44.67;19.45;;;;;;;0.39;99.47;99377.16;5002812;28;20030;-87
2021/11/11 05:40:53;;;;;;;44.65;19.92;;;;;;;0.24;98.97;99376.66;5003223;28;20030;-87
2021/11/11 05:43:19;;;;;;;48.28;19.25;;;;;;;0.27;99.33;99379.34;5003517;28;20081;-87
2021/11/11 05:45:44;;;;;;;37.15;18.90;;;;;;;0.32;99.56;99380.38;5003462;28;20080;-87
2021/11/11 05:48:09;;;;;;;38.03;17.92;;;;;;;0.34;99.04;99378.75;5003414;28;20249;-87
2021/11/11 05:50:36;;;;;;;33.55;16.50;;;;;;;0.33;98.97;99377.84;5003505;28;20145;-87
2021/11/11 05:53:02;;;;;;;39.40;16.80;;;;;;;0.10;99.38;99373.63;5004544;28;20022;-87
2021/11/11 05:55:28;;;;;;;48.95;17.23;;;;;;;0.08;99.35;99372.69;5003749;28;20029;-87
2021/11/11 05:57:53;;;;;;;38.28;17.17;;;;;;;0.08;99.35;99371.81;5003551;28;20026;-87
2021/11/11 06:00:20;;;;;;;34.53;16.10;;;;;;;0.04;99.85;99378.59;5004507;28;20085;-87
2021/11/11 06:02:45;;;;;;;37.42;17.70;;;;;;;0.20;99.94;99385.16;5003744;28;20249;-87
2021/11/11 06:05:11;;;;;;;30.50;15.88;;;;;;;0.28;99.87;99391.47;5003241;28;20101;-87
2021/11/11 06:07:37;;;;;;;43.20;17.33;;;;;;;0.29;99.45;99403.59;5003106;28;20081;-87
2021/11/11 06:10:06;;;;;;;41.05;17.23;;;;;;;0.30;99.41;99394.97;5004391;28;20080;-87
2021/11/11 06:12:31;;;;;;;30.75;15.68;;;;;;;0.32;99.29;99401.09;5003205;28;20026;-87
2021/11/11 06:14:57;;;;;;;33.17;17.88;;;;;;;0.20;99.05;99395.50;5003242;28;20064;-87
2021/11/11 06:17:24;;;;;;;40.50;18.48;;;;;;;0.28;98.85;99404.44;5003108;28;20027;-87
2021/11/11 06:19:50;;;;;;;40.08;17.85;;;;;;;0.20;99.37;99406.75;5003259;28;20032;-87
2021/11/11 06:22:16;;;;;;;31.45;16.30;;;;;;;0.18;99.14;99412.72;5003135;28;20218;-87
2021/11/11 06:24:44;;;;;;;31.55;16.70;;;;;;;0.22;99.07;99419.75;5003173;28;20022;-87
2021/11/11 06:27:10;;;;;;;33.08;16.95;;;;;;;0.09;99.00;99433.97;5003506;28;20191;-87
2021/11/11 06:29:35;;;;;;;33.53;16.92;;;;;;;0.23;98.75;99437.94;5005873;28;20030;-87
2021/11/11 06:32:01;;;;;;;32.72;16.25;;;;;;;0.12;99.08;99433.22;5006820;28;20225;-87
2021/11/11 06:34:27;;;;;;;39.90;16.38;;;;;;;0.11;98.81;99436.63;5007136;28;20245;-87
2021/11/11 06:36:52;;;;;;;36.85;16.00;;;;;;;-0.01;99.24;99427.63;5006700;28;20076;-87
2021/11/11 06:39:18;;;;;;;41.60;16.40;;;;;;;0.06;99.44;99438.19;5007939;28;20033;-87
2021/11/11 06:41:43;;;;;;;29.80;15.68;;;;;;;0.21;99.82;99443.84;5006681;28;20084;-87
2021/11/11 06:44:09;;;;;;;31.90;15.27;;;;;;;0.10;99.11;99442.63;5006644;28;20054;-87
2021/11/11 06:46:36;;;;;;;40.38;17.02;;;;;;;-0.07;99.40;99442.94;5006932;28;20030;-87
2021/11/11 06:49:02;;;;;;;45.25;18.83;;;;;;;0.06;99.94;99443.34;5006571;28;20233;-87
2021/11/11 06:51:28;;;;;;;40.15;18.42;;;;;;;0.14;99.76;99436.72;5006758;28;20045;-87
2021/11/11 06:53:54;;;;;;;39.92;18.42;;;;;;;0.27;99.44;99455.31;5006378;28;20022;-87
2021/11/11 06:56:19;;;;;;;35.08;17.38;;;;;;;0.07;99.54;99439.94;5006385;28;20026;-87
2021/11/11 06:58:45;;;;;;;37.05;16.77;;;;;;;0.10;99.81;99447.81;5007767;28;20050;-87
2021/11/11 07:01:10;;;;;;;39.95;19.65;;;;;;;0.03;99.59;99438.06;5006618;28;20218;-87
2021/11/11 07:03:36;;;;;;;45.40;18.05;;;;;;;0.06;99.86;99440.78;5006514;28;20029;-87
2021/11/11 07:06:02;;;;;;;53.60;19.48;;;;;;;0.07;100.00;99437.34;5007160;28;20313;-87
2021/11/11 07:08:28;;;;;;;44.15;19.75;;;;;;;0.13;100.00;99445.31;5006156;28;20101;-87
2021/11/11 07:10:54;;;;;;;70.82;18.98;;;;;;;0.06;100.00;99438.19;5006564;28;20089;-87
2021/11/11 07:13:20;;;;;;;57.80;21.23;;;;;;;0.11;100.00;99441.78;5006475;28;20101;-87
2021/11/11 07:15:46;;;;;;;77.97;18.05;;;;;;;0.11;100.00;99458.22;5006375;28;20022;-87
2021/11/11 07:18:13;;;;;;;68.40;18.70;;;;;;;0.00;100.00;99460.41;5006934;28;20265;-87
2021/11/11 07:20:43;;;;;;;41.08;17.10;;;;;;;0.11;100.00;99452.13;5005975;28;20334;-87
2021/11/11 07:23:10;;;;;;;29.20;15.90;;;;;;;0.35;100.00;99437.44;5005921;28;20029;-87
2021/11/11 07:25:36;;;;;;;40.28;17.40;;;;;;;0.54;100.00;99452.75;5005802;28;20261;-87
2021/11/11 07:28:02;;;;;;;35.53;16.80;;;;;;;0.66;99.94;99448.00;5006960;28;20019;-87
2021/11/11 07:30:28;;;;;;;37.88;16.75;;;;;;;0.71;99.49;99449.00;5005794;28;20058;-87
2021/11/11 07:32:53;;;;;;;32.65;16.58;;;;;;;0.79;99.27;99455.31;5005660;28;20022;-87
2021/11/11 07:35:19;;;;;;;31.40;16.20;;;;;;;0.73;99.19;99455.13;5005744;28;20018;-87
2021/11/11 07:37:48;;;;;;;35.08;16.83;;;;;;;0.72;99.86;99461.13;5005511;28;20318;-87
2021/11/11 07:40:16;;;;;;;31.70;15.43;;;;;;;0.84;99.60;99462.41;5005209;28;20101;-87
2021/11/11 07:42:43;;;;;;;32.88;14.52;;;;;;;0.95;99.38;99463.59;5005513;28;20044;-87
2021/11/11 07:45:10;;;;;;;43.28;15.63;;;;;;;0.75;98.26;99456.03;5005484;28;20019;-87
2021/11/11 07:47:36;;;;;;;45.67;18.08;;;;;;;0.68;99.07;99451.50;5006840;28;20117;-87
2021/11/11 07:50:04;;;;;;;51.80;16.33;;;;;;;0.70;98.47;99447.25;5005376;28;20206;-87
2021/11/11 07:52:30;;;;;;;35.33;15.90;;;;;;;0.74;98.93;99456.88;5006397;28;20084;-87
2021/11/11 07:54:57;;;;;;;31.13;15.50;;;;;;;1.00;98.74;99463.75;5005302;28;20061;-87
2021/11/11 07:57:24;;;;;;;36.55;14.93;;;;;;;1.09;98.40;99464.03;5005227;28;20025;-87
2021/11/11 07:59:51;;;;;;;33.72;17.13;;;;;;;1.21;98.55;99459.25;5005236;28;20337;-87
2021/11/11 08:02:17;;;;;;;47.90;18.17;;;;;;;1.18;98.05;99465.22;5003481;28;20336;-87
2021/11/11 08:04:44;;;;;;;33.97;15.45;;;;;;;1.37;97.73;99472.72;5004056;28;20061;-87
2021/11/11 08:07:09;;;;;;;44.30;16.95;;;;;;;1.09;96.89;99464.03;5003976;28;20226;-87
2021/11/11 08:09:35;;;;;;;30.45;15.82;;;;;;;1.23;97.15;99462.78;5004597;28;20018;-87
2021/11/11 08:12:00;;;;;;;26.85;15.35;;;;;;;1.32;97.39;99457.84;5003709;28;20018;-87
2021/11/11 08:14:26;;;;;;;43.47;17.08;;;;;;;1.39;97.76;99465.00;5004714;28;20029;-87
2021/11/11 08:16:52;;;;;;;32.00;16.02;;;;;;;1.63;97.60;99476.06;5004855;28;20310;-87
2021/11/11 08:19:17;;;;;;;32.92;15.68;;;;;;;1.70;96.75;99483.19;5003910;28;20314;-87
2021/11/11 08:21:43;;;;;;;37.20;15.68;;;;;;;1.65;97.03;99479.59;5003852;28;20021;-87
2021/11/11 08:24:09;;;;;;;44.35;17.25;;;;;;;1.71;96.79;99479.78;5003439;28;20018;-87
2021/11/11 08:26:34;;;;;;;27.25;14.13;;;;;;;1.76;95.94;99478.16;5003081;28;20069;-87
2021/11/11 08:29:00;;;;;;;27.63;14.38;;;;;;;1.89;95.58;99501.03;5003427;28;20448;-87
2021/11/11 08:31:25;;;;;;;29.08;14.35;;;;;;;1.95;95.72;99511.59;5005080;28;20022;-87
2021/11/11 08:33:51;;;;;;;39.75;13.77;;;;;;;1.84;95.38;99502.63;5003138;28;20033;-87
2021/11/11 08:36:16;;;;;;;35.55;13.50;;;;;;;1.82;94.80;99509.50;5004370;28;20022;-87
2021/11/11 08:38:42;;;;;;;26.05;13.93;;;;;;;1.96;95.85;99510.75;5006765;28;20014;-87
2021/11/11 08:41:08;;;;;;;25.17;13.30;;;;;;;1.99;95.82;99521.22;5004090;28;20109;-87
2021/11/11 08:43:33;;;;;;;25.83;13.90;;;;;;;2.18;95.77;99519.19;5020074;28;20032;-87
2021/11/11 08:45:59;;;;;;;44.65;14.82;;;;;;;2.28;95.18;99523.78;5012811;28;20022;-87
2021/11/11 08:48:24;;;;;;;30.23;14.23;;;;;;;2.24;95.77;99531.47;5003030;28;20018;-87
2021/11/11 08:50:50;;;;;;;28.60;14.95;;;;;;;2.47;95.41;99535.59;5003006;28;20053;-87
2021/11/11 08:53:17;;;;;;;28.35;14.02;;;;;;;2.62;95.39;99529.91;5001696;28;20018;-87
2021/11/11 08:55:43;;;;;;;23.92;12.50;;;;;;;2.77;94.96;99533.75;5014277;28;20056;-87
2021/11/11 08:58:12;;;;;;;32.35;13.25;;;;;;;2.87;94.74;99543.56;5023022;28;20029;-87
2021/11/11 09:00:42;;;;;;;38.15;15.63;;;;;;;2.79;95.24;99547.69;5023116;28;20080;-87
2021/11/11 09:03:09;;;;;;;27.45;13.55;;;;;;;2.97;95.19;99539.47;5022985;28;20022;-87
2021/11/11 09:05:36;;;;;;;28.48;12.40;;;;;;;2.93;94.31;99542.81;5022407;28;20033;-87
2021/11/11 09:08:03;;;;;;;24.88;12.75;;;;;;;3.08;94.87;99538.91;5022458;28;20341;-87
2021/11/11 09:10:30;;;;;;;22.45;11.50;;;;;;;3.11;94.30;99525.97;5022651;28;20022;-87
2021/11/11 09:12:57;;;;;;;22.20;13.18;;;;;;;3.15;95.58;99520.00;5010147;28;20022;-87
2021/11/11 09:15:27;;;;;;;23.83;12.95;;;;;;;3.23;95.50;99515.81;5002855;28;20037;-87
2021/11/11 09:17:57;;;;;;;24.75;12.73;;;;;;;3.35;95.36;99538.69;5003050;28;20314;-87
2021/11/11 09:20:23;;;;;;;21.65;12.90;;;;;;;3.43;95.08;99543.22;5002446;28;20318;-87
2021/11/11 09:22:51;;;;;;;37.95;13.73;;;;;;;3.23;94.93;99534.03;5002738;28;20018;-87
2021/11/11 09:25:16;;;;;;;27.67;14.32;;;;;;;3.41;95.43;99534.47;5002971;28;20030;-87
2021/11/11 09:27:44;;;;;;;34.22;14.70;;;;;;;3.54;95.59;99536.50;5002943;28;20201;-87
2021/11/11 09:30:18;;;;;;;30.33;16.02;;;;;;;3.60;95.24;99533.16;5002979;28;20022;-87
2021/11/11 09:32:45;;;;;;;27.20;13.98;;;;;;;3.69;95.18;99530.75;5002437;28;20026;-87
2021/11/11 09:35:10;;;;;;;29.98;15.18;;;;;;;3.74;95.40;99540.41;5004071;28;20214;-87
2021/11/11 09:37:37;;;;;;;31.63;16.20;;;;;;;3.76;95.13;99533.53;5002476;28;20026;-87
2021/11/11 09:40:06;;;;;;;31.67;15.02;;;;;;;3.55;95.79;99527.84;5002647;28;20225;-87
2021/11/11 09:42:34;;;;;;;41.08;15.52;;;;;;;3.58;95.76;99535.72;5003624;28;20073;-87
2021/11/11 09:45:00;;;;;;;30.98;14.35;;;;;;;3.66;95.70;99533.28;5002161;28;20288;-87
2021/11/11 09:47:25;;;;;;;33.55;15.57;;;;;;;3.70;95.47;99538.59;5017965;28;20045;-87
2021/11/11 09:49:51;;;;;;;32.17;16.15;;;;;;;3.75;95.89;99537.00;5022059;28;20080;-87
2021/11/11 09:52:18;;;;;;;33.80;14.93;;;;;;;3.73;95.42;99536.06;5022454;28;20077;-87
2021/11/11 10:00:12;;;;;;;29.05;14.63;;;;;;;3.78;95.00;99521.44;5023171;28;20025;-87
2021/11/11 10:02:38;;;;;;;35.30;13.90;;;;;;;3.81;95.60;99521.50;5022336;28;20022;-87
2021/11/11 10:05:04;;;;;;;27.48;14.48;;;;;;;3.95;96.27;99520.06;5025858;28;20025;-87
2021/11/11 10:07:30;;;;;;;35.67;16.75;;;;;;;4.06;96.22;99513.34;5025959;28;20037;-87
2021/11/11 10:09:56;;;;;;;39.70;18.85;;;;;;;4.05;95.83;99501.16;5025871;28;20021;-87
2021/11/11 10:12:22;;;;;;;40.45;17.75;;;;;;;4.18;96.26;99492.72;5006822;28;20022;-87
2021/11/11 10:14:50;;;;;;;41.25;17.90;;;;;;;4.18;95.35;99497.94;5005797;28;20257;-87
2021/11/11 10:17:19;;;;;;;40.05;19.02;;;;;;;4.20;94.92;99501.47;5006060;28;20314;-87
2021/11/11 10:19:51;;;;;;;48.55;20.80;;;;;;;4.29;94.85;99504.25;5005909;28;20018;-87
2021/11/11 10:22:22;;;;;;;40.03;18.48;;;;;;;4.28;94.32;99505.09;5007159;28;20026;-87
2021/11/11 10:24:56;;;;;;;51.00;20.38;;;;;;;4.22;96.01;99505.00;5005656;28;20332;-87
2021/11/11 10:27:28;;;;;;;40.40;18.67;;;;;;;4.36;96.22;99495.69;5005972;28;20018;-87
2021/11/11 10:30:05;;;;;;;46.95;21.77;;;;;;;4.43;95.97;99500.16;5005625;28;20020;-87
2021/11/11 10:32:44;;;;;;;41.80;19.95;;;;;;;4.50;95.39;99502.03;5004265;28;20314;-87
2021/11/11 10:35:13;;;;;;;54.00;19.92;;;;;;;4.36;94.80;99497.41;5005616;28;20025;-87
2021/11/11 10:37:46;;;;;;;40.92;21.23;;;;;;;4.50;95.35;99481.19;5005434;28;20026;-87
2021/11/11 10:40:34;;;;;;;44.55;22.40;;;;;;;4.56;95.59;99495.19;5005366;28;20030;-87
2021/11/11 10:43:03;;;;;;;50.75;22.02;;;;;;;4.62;94.65;99500.50;5003955;28;20030;-87
2021/11/11 10:45:32;;;;;;;41.58;20.83;;;;;;;4.73;95.56;99514.59;5005220;28;20018;-87
2021/11/11 10:48:01;;;;;;;47.70;22.45;;;;;;;4.75;94.92;99507.69;5005520;28;20302;-87
2021/11/11 10:50:32;;;;;;;53.42;23.00;;;;;;;4.84;94.87;99513.06;5005105;28;20253;-87
2021/11/11 10:53:10;;;;;;;49.63;23.73;;;;;;;4.82;94.41;99504.34;5005410;28;20061;-87
2021/11/11 10:55:46;;;;;;;46.28;22.30;;;;;;;4.89;94.87;99503.56;5005451;28;20262;-88
2021/11/11 10:58:15;;;;;;;46.83;22.95;;;;;;;4.93;95.55;99502.81;5004960;28;20022;-87
2021/11/11 11:00:50;;;;;;;49.30;23.35;;;;;;;4.85;94.52;99501.78;5005643;28;20026;-87
2021/11/11 11:03:19;;;;;;;59.63;25.65;;;;;;;4.59;96.34;99490.03;5005881;28;20105;-87
2021/11/11 11:05:55;;;;;;;75.50;25.52;;;;;;;4.57;96.31;99486.50;5005101;28;20034;-87
2021/11/11 11:08:26;;;;;;;59.58;26.90;;;;;;;4.78;96.55;99497.31;5004818;28;20084;-87
2021/11/11 11:11:02;;;;;;;58.17;26.70;;;;;;;4.80;96.44;99488.66;5006058;28;20101;-87
2021/11/11 11:13:32;;;;;;;74.60;26.13;;;;;;;4.68;96.61;99484.97;5004857;28;20023;-87
2021/11/11 11:16:02;;;;;;;80.78;26.85;;;;;;;4.78;96.39;99492.09;5001163;28;20025;-87
2021/11/11 11:18:31;;;;;;;51.40;25.23;;;;;;;4.94;97.41;99494.13;5004606;28;20318;-87
2021/11/11 11:21:01;;;;;;;54.38;25.60;;;;;;;4.88;95.94;99491.41;5004766;28;20069;-87
2021/11/11 11:23:32;;;;;;;54.05;26.00;;;;;;;5.08;95.53;99487.38;4985760;28;20023;-87
2021/11/11 11:26:05;;;;;;;56.10;26.20;;;;;;;5.14;95.22;99477.03;4985526;28;20029;-87
2021/11/11 11:28:36;;;;;;;58.00;28.45;;;;;;;5.11;95.80;99477.00;4985755;28;20201;-87
2021/11/11 11:31:05;;;;;;;61.05;27.33;;;;;;;5.22;96.52;99470.22;4989256;28;20042;-88
2021/11/11 11:33:43;;;;;;;86.43;31.42;;;;;;;5.23;96.69;99462.41;5004715;28;20022;-87
2021/11/11 11:36:17;;;;;;;74.10;32.35;;;;;;;5.24;97.59;99458.03;5004786;28;20029;-87
2021/11/11 11:38:54;;;;;;;66.72;29.33;;;;;;;5.36;96.32;99471.28;5005595;28;20026;-87
2021/11/11 11:41:33;;;;;;;63.60;28.67;;;;;;;5.35;95.73;99461.72;5004639;28;20030;-87
2021/11/11 11:44:29;;;;;;;61.35;27.85;;;;;;;5.31;96.05;99460.78;5004622;28;20022;-87
2021/11/11 11:47:36;;;;;;;67.32;30.00;;;;;;;5.35;95.73;99459.09;5004651;28;20087;-87
2021/11/11 11:50:30;;;;;;;67.45;28.35;;;;;;;5.44;94.94;99464.44;5004789;28;20026;-87
2021/11/11 11:53:02;;;;;;;70.00;31.48;;;;;;;5.40;95.30;99475.69;5004860;28;20026;-87
2021/11/11 12:01:15;;;;;;;85.43;31.83;;;;;;;5.44;96.00;99474.91;4997444;28;20030;-87
2021/11/11 12:08:44;;;;;;;74.40;32.10;;;;;;;5.74;95.97;99464.84;5004925;28;20340;-87
2021/11/11 12:39:37;;;;;;;83.70;34.35;;;;;;;6.18;94.96;99432.31;5004812;28;20046;-87